createdAt,value
2017-08-31T00:00:04.665Z,6.90
2017-08-31T00:02:34.875Z,6.30
2017-08-31T00:05:04.461Z,5.97
2017-08-31T00:07:34.099Z,6.40
2017-08-31T00:10:03.699Z,5.60
2017-08-31T00:12:33.374Z,6.23
2017-08-31T00:15:17.414Z,5.30
2017-08-31T00:17:47.202Z,6.07
2017-08-31T00:20:16.785Z,6.03
2017-08-31T00:22:46.452Z,5.60
2017-08-31T00:25:16.048Z,5.63
2017-08-31T00:27:45.727Z,5.63
2017-08-31T00:30:15.335Z,7.33
2017-08-31T00:32:44.991Z,6.80
2017-08-31T00:35:14.606Z,6.60
2017-08-31T00:37:44.542Z,6.63
2017-08-31T00:40:14.139Z,6.50
2017-08-31T00:42:43.810Z,5.40
2017-08-31T00:45:13.415Z,6.63
2017-08-31T00:47:43.073Z,5.30
2017-08-31T00:50:12.644Z,6.03
2017-08-31T00:52:42.285Z,6.33
2017-08-31T00:55:11.915Z,6.10
2017-08-31T00:57:41.570Z,5.80
2017-08-31T01:00:11.168Z,5.97
2017-08-31T01:02:40.836Z,5.90
2017-08-31T01:05:10.450Z,6.20
2017-08-31T01:07:40.131Z,6.77
2017-08-31T01:10:16.887Z,6.23
2017-08-31T01:12:46.534Z,6.77
2017-08-31T01:15:16.742Z,7.00
2017-08-31T01:17:46.553Z,5.27
2017-08-31T01:20:16.143Z,6.00
2017-08-31T01:22:45.811Z,6.80
2017-08-31T01:25:17.108Z,6.83
2017-08-31T01:27:46.762Z,6.00
2017-08-31T01:30:16.352Z,5.20
2017-08-31T01:32:45.992Z,5.57
2017-08-31T01:35:15.592Z,5.80
2017-08-31T01:37:45.223Z,5.70
2017-08-31T01:40:14.897Z,5.40
2017-08-31T01:42:44.497Z,5.27
2017-08-31T01:45:14.169Z,5.43
2017-08-31T01:47:46.559Z,5.80
2017-08-31T01:50:16.239Z,5.10
2017-08-31T01:55:41.039Z,6.10
2017-08-31T01:58:10.627Z,6.07
2017-08-31T02:00:40.298Z,5.30
2017-08-31T02:03:09.880Z,5.60
2017-08-31T02:05:39.540Z,5.67
2017-08-31T02:08:17.339Z,6.00
2017-08-31T02:10:47.002Z,5.57
2017-08-31T02:13:16.631Z,6.20
2017-08-31T02:15:46.248Z,6.60
2017-08-31T02:18:15.867Z,7.80
2017-08-31T02:20:45.461Z,8.80
2017-08-31T02:23:15.124Z,8.40
2017-08-31T02:25:44.733Z,6.13
2017-08-31T02:28:14.360Z,6.37
2017-08-31T02:30:43.924Z,6.73
2017-08-31T02:33:13.842Z,7.23
2017-08-31T02:35:55.870Z,6.40
2017-08-31T02:38:25.522Z,7.07
2017-08-31T02:40:55.138Z,7.03
2017-08-31T02:43:24.788Z,6.10
2017-08-31T02:45:54.379Z,6.63
2017-08-31T02:48:24.038Z,6.20
2017-08-31T02:50:53.624Z,6.93
2017-08-31T02:53:23.284Z,6.37
2017-08-31T02:55:52.867Z,7.43
2017-08-31T02:58:22.470Z,8.00
2017-08-31T03:00:52.138Z,7.43
2017-08-31T03:03:21.727Z,6.20
2017-08-31T03:05:51.379Z,5.83
2017-08-31T03:08:20.953Z,6.77
2017-08-31T03:10:50.617Z,6.87
2017-08-31T03:13:20.202Z,6.27
2017-08-31T03:15:49.845Z,8.77
2017-08-31T03:18:19.514Z,7.13
2017-08-31T03:20:49.152Z,7.43
2017-08-31T03:23:18.736Z,6.80
2017-08-31T03:25:48.388Z,6.60
2017-08-31T03:28:17.979Z,7.97
2017-08-31T03:30:47.619Z,7.77
2017-08-31T03:33:17.203Z,6.73
2017-08-31T03:35:46.846Z,6.37
2017-08-31T03:38:16.435Z,7.10
2017-08-31T03:40:46.040Z,8.00
2017-08-31T03:43:15.631Z,7.30
2017-08-31T03:48:40.642Z,7.17
2017-08-31T03:51:10.207Z,6.83
2017-08-31T03:53:39.855Z,5.80
2017-08-31T03:56:09.438Z,7.07
2017-08-31T04:01:33.386Z,7.43
2017-08-31T04:04:03.083Z,6.73
2017-08-31T04:06:32.736Z,6.00
2017-08-31T04:09:02.553Z,6.73
2017-08-31T04:11:32.199Z,7.07
2017-08-31T04:14:16.339Z,7.10
2017-08-31T04:16:45.991Z,8.10
2017-08-31T04:19:15.580Z,9.63
2017-08-31T04:21:45.516Z,8.23
2017-08-31T04:24:15.103Z,7.17
2017-08-31T04:26:44.752Z,6.40
2017-08-31T04:29:15.359Z,6.73
2017-08-31T04:31:45.011Z,8.47
2017-08-31T04:34:15.374Z,8.57
2017-08-31T04:36:45.031Z,6.27
2017-08-31T04:39:14.637Z,8.73
2017-08-31T04:44:38.954Z,6.87
2017-08-31T04:47:08.555Z,7.27
2017-08-31T04:49:38.208Z,7.40
2017-08-31T04:52:07.794Z,7.67
2017-08-31T04:54:37.437Z,7.70
2017-08-31T04:57:07.025Z,6.53
2017-08-31T04:59:37.239Z,7.00
2017-08-31T05:02:06.831Z,7.00
2017-08-31T05:04:36.478Z,6.83
2017-08-31T05:07:06.058Z,7.80
2017-08-31T05:12:31.157Z,6.93
2017-08-31T05:15:00.738Z,7.47
2017-08-31T05:17:30.396Z,8.63
2017-08-31T05:19:59.980Z,8.60
2017-08-31T05:22:29.583Z,7.70
2017-08-31T05:24:59.179Z,8.23
2017-08-31T05:27:28.841Z,8.17
2017-08-31T05:29:58.457Z,7.20
2017-08-31T05:32:28.129Z,8.27
2017-08-31T05:34:57.749Z,7.30
2017-08-31T05:37:27.405Z,7.87
2017-08-31T05:40:15.673Z,8.00
2017-08-31T05:48:24.537Z,7.60
2017-08-31T05:51:01.088Z,8.40
2017-08-31T05:56:25.832Z,10.60
2017-08-31T05:58:55.410Z,9.03
2017-08-31T06:01:25.066Z,9.57
2017-08-31T06:03:54.683Z,9.10
2017-08-31T06:06:24.347Z,7.80
2017-08-31T06:08:53.939Z,10.90
2017-08-31T06:11:23.558Z,10.67
2017-08-31T06:13:53.231Z,11.63
2017-08-31T06:16:22.821Z,11.23
2017-08-31T06:21:47.041Z,7.70
2017-08-31T06:24:16.625Z,10.30
2017-08-31T06:26:46.230Z,8.17
2017-08-31T06:29:15.878Z,9.30
2017-08-31T06:31:45.458Z,8.53
2017-08-31T06:34:18.914Z,9.50
2017-08-31T06:36:48.494Z,9.90
2017-08-31T06:39:18.092Z,9.37
2017-08-31T06:41:47.666Z,7.07
2017-08-31T06:44:17.323Z,10.93
2017-08-31T06:46:46.906Z,8.40
2017-08-31T06:49:16.563Z,9.90
2017-08-31T06:51:46.159Z,8.53
2017-08-31T06:54:15.807Z,8.30
2017-08-31T06:56:45.392Z,7.53
2017-08-31T06:59:15.032Z,6.70
2017-08-31T07:04:39.827Z,7.80
2017-08-31T07:07:09.424Z,7.90
2017-08-31T07:09:39.063Z,6.87
2017-08-31T07:12:08.635Z,7.80
2017-08-31T07:14:38.541Z,7.00
2017-08-31T07:17:08.145Z,7.10
2017-08-31T07:19:37.779Z,6.57
2017-08-31T07:22:07.371Z,7.57
2017-08-31T07:24:37.025Z,6.60
2017-08-31T07:27:06.606Z,6.60
2017-08-31T07:29:36.210Z,7.00
2017-08-31T07:32:05.788Z,7.20
2017-08-31T07:34:35.437Z,5.40
2017-08-31T07:37:05.023Z,6.20
2017-08-31T07:39:34.613Z,6.27
2017-08-31T07:42:04.240Z,6.70
2017-08-31T07:44:33.825Z,6.90
2017-08-31T07:47:03.502Z,6.90
2017-08-31T07:49:33.098Z,7.07
2017-08-31T07:52:02.742Z,6.00
2017-08-31T07:54:32.315Z,5.43
2017-08-31T07:57:17.015Z,6.83
2017-08-31T08:02:41.649Z,5.73
2017-08-31T08:05:16.897Z,6.30
2017-08-31T08:10:41.133Z,6.80
2017-08-31T08:13:17.441Z,5.87
2017-08-31T08:18:41.808Z,6.03
2017-08-31T08:21:11.377Z,5.63
2017-08-31T08:26:36.209Z,5.57
2017-08-31T08:40:45.781Z,6.10
2017-08-31T08:43:15.369Z,6.00
2017-08-31T08:48:40.029Z,5.77
2017-08-31T08:51:17.059Z,5.50
2017-08-31T08:53:46.731Z,5.63
2017-08-31T08:56:17.971Z,5.63
2017-08-31T08:58:48.066Z,6.10
2017-08-31T09:01:17.663Z,5.70
2017-08-31T09:03:47.316Z,5.20
2017-08-31T09:06:17.722Z,5.87
2017-08-31T09:08:48.362Z,5.77
2017-08-31T09:11:18.016Z,5.90
2017-08-31T09:13:48.170Z,6.10
2017-08-31T09:16:17.784Z,6.00
2017-08-31T09:18:47.456Z,6.20
2017-08-31T09:21:17.829Z,5.37
2017-08-31T09:26:42.063Z,5.97
2017-08-31T09:29:11.680Z,5.40
2017-08-31T09:31:41.344Z,5.73
2017-08-31T09:34:17.357Z,5.50
2017-08-31T09:39:41.623Z,5.70
2017-08-31T09:42:11.224Z,5.03
2017-08-31T09:44:40.890Z,5.90
2017-08-31T09:47:10.483Z,5.70
2017-08-31T09:49:40.169Z,5.80
2017-08-31T09:52:09.761Z,5.30
2017-08-31T09:54:39.725Z,4.83
2017-08-31T09:57:09.316Z,5.60
2017-08-31T09:59:39.024Z,5.30
2017-08-31T10:02:08.619Z,5.00
2017-08-31T10:04:38.269Z,4.90
2017-08-31T10:07:07.849Z,4.80
2017-08-31T10:09:37.483Z,4.93
2017-08-31T10:12:07.063Z,4.70
2017-08-31T10:14:36.674Z,4.80
2017-08-31T10:17:06.425Z,4.97
2017-08-31T10:19:36.011Z,5.00
2017-08-31T10:22:05.579Z,5.47
2017-08-31T10:24:35.425Z,3.83
2017-08-31T10:27:05.101Z,5.77
2017-08-31T10:29:40.789Z,5.00
2017-08-31T10:32:17.196Z,4.83
2017-08-31T10:34:46.819Z,5.50
2017-08-31T10:37:16.405Z,5.00
2017-08-31T10:39:46.021Z,4.43
2017-08-31T10:42:15.637Z,4.60
2017-08-31T10:44:45.221Z,4.50
2017-08-31T10:47:14.892Z,4.67
2017-08-31T10:49:44.499Z,4.30
2017-08-31T10:52:14.089Z,5.57
2017-08-31T10:54:43.725Z,3.80
2017-08-31T10:57:20.025Z,4.50
2017-08-31T11:02:44.150Z,4.13
2017-08-31T11:05:13.751Z,4.73
2017-08-31T11:07:43.341Z,4.80
2017-08-31T11:10:13.247Z,4.07
2017-08-31T11:12:43.418Z,3.70
2017-08-31T11:15:13.035Z,4.10
2017-08-31T11:17:42.645Z,4.03
2017-08-31T11:20:12.260Z,4.23
2017-08-31T11:22:42.008Z,3.83
2017-08-31T11:25:12.284Z,3.87
2017-08-31T11:27:42.964Z,4.27
2017-08-31T11:30:12.611Z,4.50
2017-08-31T11:32:42.289Z,4.00
2017-08-31T11:35:12.174Z,3.77
2017-08-31T11:37:41.856Z,5.17
2017-08-31T11:40:11.469Z,5.40
2017-08-31T11:45:36.466Z,4.90
2017-08-31T11:48:06.076Z,4.87
2017-08-31T11:50:35.924Z,5.17
2017-08-31T11:53:18.618Z,5.27
2017-08-31T11:58:43.172Z,4.90
2017-08-31T12:01:13.684Z,4.60
2017-08-31T12:03:43.335Z,4.90
2017-08-31T12:06:13.209Z,4.37
2017-08-31T12:08:43.283Z,5.00
2017-08-31T12:11:12.901Z,4.20
2017-08-31T12:13:42.529Z,4.70
2017-08-31T12:16:12.130Z,4.90
2017-08-31T12:18:41.777Z,4.40
2017-08-31T12:21:11.381Z,4.47
2017-08-31T12:23:57.414Z,4.13
2017-08-31T12:26:26.999Z,4.67
2017-08-31T12:28:56.675Z,4.00
2017-08-31T12:31:26.253Z,4.63
2017-08-31T12:33:55.892Z,3.90
2017-08-31T12:36:25.472Z,3.47
2017-08-31T12:38:55.096Z,4.40
2017-08-31T12:41:24.660Z,3.90
2017-08-31T12:43:54.304Z,4.03
2017-08-31T12:46:23.874Z,4.37
2017-08-31T12:48:53.506Z,4.33
2017-08-31T12:51:23.074Z,5.33
2017-08-31T12:53:52.710Z,4.17
2017-08-31T12:56:22.282Z,4.23
2017-08-31T12:58:51.922Z,4.60
2017-08-31T13:01:21.511Z,4.30
2017-08-31T13:03:57.500Z,4.33
2017-08-31T13:06:27.095Z,5.13
2017-08-31T13:08:56.744Z,4.80
2017-08-31T13:11:26.315Z,4.70
2017-08-31T13:14:16.231Z,4.93
2017-08-31T13:16:45.795Z,4.53
2017-08-31T13:19:15.422Z,4.60
2017-08-31T13:21:45.274Z,6.43
2017-08-31T13:24:14.859Z,4.80
2017-08-31T13:29:38.898Z,4.60
2017-08-31T13:32:18.094Z,5.00
2017-08-31T13:37:42.430Z,4.70
2017-08-31T13:43:06.431Z,5.10
2017-08-31T13:48:30.452Z,5.73
2017-08-31T13:51:17.085Z,4.57
2017-08-31T13:56:40.971Z,4.73
2017-08-31T13:59:17.259Z,4.93
2017-08-31T14:04:41.672Z,4.87
2017-08-31T14:07:17.004Z,5.30
2017-08-31T14:12:40.951Z,4.77
2017-08-31T14:15:17.166Z,4.87
2017-08-31T14:20:41.629Z,5.20
2017-08-31T14:23:16.955Z,4.93
2017-08-31T14:26:05.648Z,5.37
2017-08-31T14:28:35.235Z,4.00
2017-08-31T14:31:17.530Z,4.80
2017-08-31T14:42:30.813Z,3.90
2017-08-31T14:45:16.591Z,4.90
2017-08-31T14:47:46.216Z,4.27
2017-08-31T14:53:10.936Z,4.73
2017-08-31T14:55:40.514Z,4.20
2017-08-31T14:58:10.099Z,5.10
2017-08-31T15:00:39.724Z,4.53
2017-08-31T15:03:09.307Z,4.67
2017-08-31T15:05:38.988Z,5.63
2017-08-31T15:10:34.052Z,4.33
2017-08-31T15:13:16.926Z,4.87
2017-08-31T15:15:47.353Z,4.87
2017-08-31T15:18:16.947Z,4.43
2017-08-31T15:20:46.540Z,4.67
2017-08-31T15:23:16.158Z,5.30
2017-08-31T15:25:45.742Z,5.20
2017-08-31T15:28:18.765Z,4.97
2017-08-31T15:30:48.352Z,4.83
2017-08-31T15:33:17.981Z,5.30
2017-08-31T15:35:48.261Z,5.00
2017-08-31T15:44:07.845Z,5.00
2017-08-31T15:46:37.414Z,6.17
2017-08-31T15:49:06.994Z,5.37
2017-08-31T15:54:32.017Z,5.67
2017-08-31T16:02:50.823Z,6.10
2017-08-31T16:05:20.429Z,5.50
2017-08-31T16:07:50.188Z,5.50
2017-08-31T16:13:15.226Z,5.53
2017-08-31T16:15:44.799Z,5.20
2017-08-31T16:18:14.429Z,5.53
2017-08-31T16:29:29.003Z,5.73
2017-08-31T16:31:58.578Z,6.07
2017-08-31T16:37:22.769Z,6.20
2017-08-31T16:39:52.336Z,6.30
2017-08-31T16:42:22.661Z,6.37
2017-08-31T16:44:52.238Z,5.60
2017-08-31T16:47:21.879Z,6.27
2017-08-31T16:49:51.468Z,5.90
2017-08-31T16:55:16.321Z,6.00
2017-08-31T16:57:45.949Z,7.00
2017-08-31T17:00:15.559Z,6.60
2017-08-31T17:08:34.263Z,6.70
2017-08-31T17:11:03.853Z,5.50
2017-08-31T17:13:33.455Z,5.50
2017-08-31T17:16:17.560Z,6.73
2017-08-31T17:18:47.167Z,7.10
2017-08-31T17:24:11.219Z,6.50
2017-08-31T17:26:41.462Z,6.03
2017-08-31T17:29:11.085Z,5.97
2017-08-31T17:31:40.655Z,6.20
2017-08-31T17:34:17.845Z,6.30
2017-08-31T17:36:48.417Z,6.83
2017-08-31T17:39:18.057Z,6.40
2017-08-31T17:41:47.659Z,5.37
2017-08-31T17:47:12.467Z,6.03
2017-08-31T17:52:39.642Z,5.67
2017-08-31T17:55:09.222Z,5.63
2017-08-31T17:57:38.946Z,6.30
2017-08-31T18:00:08.591Z,5.80
2017-08-31T18:02:39.208Z,5.13
2017-08-31T18:05:08.873Z,6.23
2017-08-31T18:07:38.449Z,5.43
2017-08-31T18:10:08.395Z,5.83
2017-08-31T18:12:38.020Z,5.43
2017-08-31T18:15:07.591Z,5.20
2017-08-31T18:17:37.194Z,5.77
2017-08-31T18:20:06.854Z,5.83
2017-08-31T18:22:36.432Z,5.30
2017-08-31T18:25:06.005Z,4.80
2017-08-31T18:27:35.622Z,4.60
2017-08-31T18:30:05.202Z,4.73
2017-08-31T18:35:30.128Z,3.13
2017-08-31T18:38:00.456Z,4.47
2017-08-31T18:40:30.095Z,5.33
2017-08-31T18:43:19.168Z,3.83
2017-08-31T18:45:48.800Z,3.37
2017-08-31T18:48:18.365Z,4.37
2017-08-31T18:50:47.953Z,3.93
2017-08-31T18:53:17.575Z,5.47
2017-08-31T18:58:41.618Z,3.70
2017-08-31T19:01:11.203Z,3.73
2017-08-31T19:03:40.784Z,3.50
2017-08-31T19:09:04.880Z,3.77
2017-08-31T19:11:34.503Z,3.57
2017-08-31T19:14:17.631Z,3.10
2017-08-31T19:16:47.212Z,3.67
2017-08-31T19:19:16.840Z,3.57
2017-08-31T19:24:41.914Z,3.77
2017-08-31T19:30:18.636Z,3.23
2017-08-31T19:32:48.267Z,3.50
2017-08-31T19:35:17.847Z,4.07
2017-08-31T19:37:47.467Z,4.10
2017-08-31T19:40:17.047Z,3.23
2017-08-31T19:45:41.353Z,4.43
2017-08-31T19:48:10.975Z,3.50
2017-08-31T19:53:35.263Z,3.90
2017-08-31T19:58:59.418Z,3.90
2017-08-31T20:01:29.091Z,4.70
2017-08-31T20:06:53.575Z,3.77
2017-08-31T20:09:23.178Z,4.37
2017-08-31T20:14:47.666Z,3.63
2017-08-31T20:20:18.673Z,4.03
2017-08-31T20:22:48.264Z,3.93
2017-08-31T20:25:17.841Z,4.23
2017-08-31T20:27:47.466Z,4.13
2017-08-31T20:30:17.051Z,4.27
2017-08-31T20:35:41.742Z,3.90
2017-08-31T20:38:18.056Z,4.47
2017-08-31T20:40:47.720Z,4.50
2017-08-31T20:43:17.297Z,4.20
2017-08-31T20:48:41.740Z,4.43
2017-08-31T20:51:11.351Z,4.10
2017-08-31T20:56:36.492Z,4.30
2017-08-31T20:59:06.073Z,4.07
2017-08-31T21:01:35.738Z,3.70
2017-08-31T21:04:18.695Z,3.80
2017-08-31T21:09:43.758Z,3.20
2017-08-31T21:12:13.354Z,3.77
2017-08-31T21:14:43.038Z,3.63
2017-08-31T21:17:12.640Z,3.13
2017-08-31T21:19:42.623Z,3.23
2017-08-31T21:22:12.194Z,3.30
2017-08-31T21:24:41.834Z,3.27
2017-08-31T21:27:17.993Z,2.53
2017-08-31T21:29:47.697Z,3.20
2017-08-31T21:32:17.279Z,3.00
2017-08-31T21:34:46.942Z,3.33
2017-08-31T21:40:11.607Z,3.97
2017-08-31T21:45:36.011Z,3.70
2017-08-31T21:48:05.632Z,3.63
2017-08-31T21:50:35.214Z,3.37
2017-08-31T21:53:04.822Z,3.87
2017-08-31T21:55:34.415Z,4.20
2017-08-31T21:58:04.056Z,4.13
2017-08-31T22:00:33.647Z,3.80
2017-08-31T22:03:03.280Z,3.50
2017-08-31T22:08:27.453Z,3.30
2017-08-31T22:10:57.028Z,3.60
2017-08-31T22:13:26.661Z,2.60
2017-08-31T22:15:56.229Z,3.20
2017-08-31T22:18:25.870Z,3.20
2017-08-31T22:20:55.441Z,3.50
2017-08-31T22:23:25.083Z,3.27
2017-08-31T22:25:54.647Z,3.40
2017-08-31T22:28:24.277Z,3.30
2017-08-31T22:30:54.705Z,3.27
2017-08-31T22:33:24.360Z,2.50
2017-08-31T22:35:53.937Z,3.47
2017-08-31T22:38:23.510Z,3.23
2017-08-31T22:40:53.168Z,3.57
2017-08-31T22:43:22.740Z,3.50
2017-08-31T22:45:52.399Z,3.40
2017-08-31T22:48:21.974Z,4.10
2017-08-31T22:53:46.528Z,3.40
2017-08-31T22:56:16.118Z,4.23
2017-08-31T22:58:45.768Z,4.20
2017-08-31T23:04:10.605Z,3.83
2017-08-31T23:09:35.227Z,5.07
2017-08-31T23:12:04.845Z,4.30
2017-08-31T23:17:29.962Z,4.00
2017-08-31T23:19:59.539Z,4.70
2017-08-31T23:22:29.180Z,4.97
2017-08-31T23:24:58.758Z,6.57
2017-08-31T23:27:28.428Z,6.07
2017-08-31T23:29:58.002Z,6.50
2017-08-31T23:32:27.745Z,5.30
2017-08-31T23:34:57.405Z,6.90
2017-08-31T23:37:26.986Z,6.53
2017-08-31T23:39:56.621Z,5.83
2017-08-31T23:45:20.910Z,7.60
2017-08-31T23:50:45.454Z,7.10
2017-08-31T23:53:15.026Z,6.33
2017-08-31T23:55:44.656Z,6.60
2017-08-31T23:58:14.232Z,7.03
